Time;durP1;ratioP1;P1;durP2;ratioP2;P2;SDS_P1;SDS_P2;PMS_P1;PMS_P2;Temp;Humidity;BMP_temperature;BMP_pressure;BME280_temperature;BME280_humidity;BME280_pressure;Samples;Min_cycle;Max_cycle;Signal;HPM_P1;HPM_P2
2023/10/07 00:00:32;;;;;;;4.45;1.55;;;15.20;99.90;;;;;;4952108;29;20035;-53
2023/10/07 00:03:03;;;;;;;6.63;2.22;;;15.20;99.90;;;;;;4952128;29;20400;-55
2023/10/07 00:05:32;;;;;;;5.10;1.92;;;15.20;99.90;;;;;;4952248;29;20063;-53
2023/10/07 00:08:03;;;;;;;5.53;1.80;;;15.20;99.90;;;;;;4952394;28;20440;-54
2023/10/07 00:10:30;;;;;;;7.78;2.10;;;15.20;99.90;;;;;;4952027;29;20031;-55
2023/10/07 00:12:57;;;;;;;8.95;2.47;;;15.20;99.90;;;;;;4951905;29;20031;-51
2023/10/07 00:15:29;;;;;;;5.50;2.00;;;15.20;99.90;;;;;;4952119;29;20098;-56
2023/10/07 00:18:11;;;;;;;6.10;2.00;;;15.20;99.90;;;;;;4952127;28;20070;-53
2023/10/07 00:20:41;;;;;;;3.70;1.75;;;15.20;99.90;;;;;;4951925;29;20042;-56
2023/10/07 00:23:09;;;;;;;7.07;2.15;;;15.20;99.90;;;;;;4951928;29;20038;-56
2023/10/07 00:25:38;;;;;;;5.03;2.05;;;15.10;99.90;;;;;;4951952;29;20119;-51
2023/10/07 00:28:18;;;;;;;5.22;2.13;;;15.10;99.90;;;;;;4954024;28;20031;-56
2023/10/07 00:30:47;;;;;;;3.60;1.70;;;15.10;99.90;;;;;;4954016;29;20038;-54
2023/10/07 00:33:14;;;;;;;10.43;2.55;;;15.00;99.90;;;;;;4955155;29;20034;-52
2023/10/07 00:35:40;;;;;;;5.50;1.80;;;15.10;99.90;;;;;;4954097;29;20480;-56
2023/10/07 00:38:14;;;;;;;5.05;1.75;;;15.10;99.90;;;;;;4955205;28;20400;-54
2023/10/07 00:40:53;;;;;;;5.93;1.98;;;15.00;99.90;;;;;;4953804;29;20031;-54
2023/10/07 00:43:26;;;;;;;5.78;2.10;;;15.00;99.90;;;;;;4953796;28;20039;-56
2023/10/07 00:46:06;;;;;;;7.65;2.20;;;15.00;99.90;;;;;;4953814;29;20520;-53
2023/10/07 00:48:47;;;;;;;6.40;2.10;;;15.00;99.90;;;;;;4954860;28;20027;-54
2023/10/07 00:51:17;;;;;;;4.82;2.15;;;15.00;99.90;;;;;;4954047;29;20028;-53
2023/10/07 00:53:51;;;;;;;7.72;2.08;;;14.90;99.90;;;;;;4953536;29;20054;-52
2023/10/07 00:56:17;;;;;;;4.43;1.90;;;15.00;99.90;;;;;;4953727;29;20039;-56
2023/10/07 00:58:46;;;;;;;6.43;2.10;;;15.00;99.90;;;;;;4954656;28;20081;-56
2023/10/07 01:01:13;;;;;;;4.32;2.10;;;14.90;99.90;;;;;;4953591;29;20101;-55
2023/10/07 01:03:48;;;;;;;5.03;1.83;;;14.90;99.90;;;;;;4953274;29;20042;-55
2023/10/07 01:06:22;;;;;;;8.02;2.30;;;15.00;99.90;;;;;;4953558;28;20031;-55
2023/10/07 01:08:55;;;;;;;5.88;1.90;;;14.90;99.90;;;;;;4953302;29;20066;-55
2023/10/07 01:11:24;;;;;;;5.07;2.00;;;15.00;99.90;;;;;;4953638;29;20039;-53
2023/10/07 01:13:56;;;;;;;7.43;2.53;;;14.90;99.90;;;;;;4954445;29;20034;-51
2023/10/07 01:16:41;;;;;;;6.50;2.38;;;15.00;99.90;;;;;;4953417;29;20039;-54
2023/10/07 01:21:54;;;;;;;7.03;2.83;;;15.00;99.90;;;;;;4954351;29;20066;-54
2023/10/07 01:29:59;;;;;;;10.32;3.58;;;14.90;99.90;;;;;;4952939;28;20042;-54
2023/10/07 01:32:48;;;;;;;8.23;2.70;;;14.90;99.90;;;;;;4952954;29;20027;-54
2023/10/07 01:35:13;;;;;;;7.43;2.80;;;14.90;99.90;;;;;;4954300;29;20035;-54
2023/10/07 01:37:51;;;;;;;9.38;2.35;;;14.90;99.90;;;;;;4953738;28;20078;-51
2023/10/07 01:40:17;;;;;;;7.20;2.75;;;14.90;99.90;;;;;;4952730;29;20106;-53
2023/10/07 01:42:44;;;;;;;6.78;2.28;;;14.90;99.90;;;;;;4952641;29;20452;-52
2023/10/07 01:45:22;;;;;;;6.65;2.67;;;14.90;99.90;;;;;;4952778;29;20110;-53
2023/10/07 01:47:49;;;;;;;7.37;2.60;;;14.90;99.90;;;;;;4954029;28;20034;-53
2023/10/07 01:50:18;;;;;;;6.35;2.40;;;14.90;99.90;;;;;;4952548;29;20466;-51
2023/10/07 01:52:53;;;;;;;9.15;2.88;;;14.90;99.90;;;;;;4952542;29;20379;-52
2023/10/07 01:55:26;;;;;;;6.20;2.65;;;14.90;99.90;;;;;;4954268;29;20039;-56
2023/10/07 01:57:52;;;;;;;7.07;2.60;;;14.80;99.90;;;;;;4952897;28;20045;-56
2023/10/07 02:03:04;;;;;;;9.88;3.60;;;14.80;99.90;;;;;;4952410;29;20476;-55
2023/10/07 02:05:40;;;;;;;9.32;3.40;;;14.80;99.90;;;;;;4952632;29;20118;-56
2023/10/07 02:08:11;;;;;;;11.23;3.70;;;14.80;99.90;;;;;;4952526;29;20031;-51
2023/10/07 02:10:40;;;;;;;7.65;3.85;;;14.80;99.90;;;;;;4953794;29;20050;-51
2023/10/07 02:13:08;;;;;;;9.80;3.03;;;14.80;99.90;;;;;;4952490;29;20031;-54
2023/10/07 02:15:37;;;;;;;11.35;4.05;;;14.80;99.90;;;;;;4952754;29;20037;-56
2023/10/07 02:18:04;;;;;;;8.13;3.38;;;14.70;99.90;;;;;;4952403;29;20035;-56
2023/10/07 02:20:38;;;;;;;13.32;3.88;;;14.80;99.90;;;;;;4952399;29;20031;-52
2023/10/07 02:23:15;;;;;;;9.38;3.03;;;14.90;99.90;;;;;;4953496;29;20114;-56
2023/10/07 02:25:41;;;;;;;9.70;3.78;;;14.90;99.90;;;;;;5008117;22;20045;-51
2023/10/07 02:28:08;;;;;;;9.60;3.00;;;14.90;99.90;;;;;;5034748;28;20029;-51
2023/10/07 02:31:00;;;;;;;8.32;3.05;;;14.90;99.90;;;;;;5033064;28;20033;-51
2023/10/07 02:33:27;;;;;;;8.32;3.00;;;14.90;99.90;;;;;;5034753;28;20030;-51
2023/10/07 02:35:56;;;;;;;7.82;3.35;;;14.90;99.90;;;;;;5033211;28;20039;-54
2023/10/07 02:38:36;;;;;;;6.75;2.83;;;14.90;99.90;;;;;;5032167;28;20080;-52
2023/10/07 02:41:16;;;;;;;10.23;3.50;;;14.80;99.90;;;;;;5034327;28;20084;-49
2023/10/07 02:43:43;;;;;;;8.02;3.17;;;14.90;99.90;;;;;;5033340;28;20034;-51
2023/10/07 02:46:25;;;;;;;7.93;2.97;;;14.80;99.90;;;;;;5032956;28;20045;-50
2023/10/07 02:48:55;;;;;;;11.50;3.20;;;14.80;99.90;;;;;;5034848;28;20025;-52
2023/10/07 02:51:21;;;;;;;9.98;3.70;;;14.80;99.90;;;;;;5034081;28;20083;-49
2023/10/07 02:53:46;;;;;;;8.50;3.40;;;14.80;99.90;;;;;;5033387;28;20096;-53
2023/10/07 02:56:18;;;;;;;9.45;4.00;;;14.80;99.90;;;;;;5035167;28;20045;-50
2023/10/07 02:58:59;;;;;;;10.93;3.95;;;14.90;99.90;;;;;;5032804;28;20025;-51
2023/10/07 03:01:25;;;;;;;9.10;3.50;;;14.80;99.90;;;;;;5034534;28;20026;-50
2023/10/07 03:03:52;;;;;;;12.10;4.97;;;14.90;99.90;;;;;;5034329;28;20520;-52
2023/10/07 03:06:17;;;;;;;9.98;3.92;;;14.90;99.90;;;;;;5033102;28;20044;-50
2023/10/07 03:11:20;;;;;;;12.43;4.30;;;14.90;99.90;;;;;;5034211;28;20026;-51
2023/10/07 03:13:49;;;;;;;12.98;4.93;;;15.00;99.90;;;;;;5033893;28;20033;-54
2023/10/07 03:18:56;;;;;;;14.82;5.97;;;15.00;99.90;;;;;;5034179;28;20535;-50
2023/10/07 03:24:13;;;;;;;14.60;4.55;;;14.90;99.90;;;;;;5033980;28;20040;-49
2023/10/07 03:26:40;;;;;;;12.52;5.22;;;14.90;99.90;;;;;;5033244;28;20030;-52
2023/10/07 03:29:07;;;;;;;14.45;4.78;;;14.80;99.90;;;;;;5033584;28;20494;-52
2023/10/07 03:34:11;;;;;;;8.80;4.10;;;14.90;99.90;;;;;;5033816;28;20026;-50
2023/10/07 03:36:41;;;;;;;11.10;4.70;;;14.90;99.90;;;;;;5033895;28;20037;-54
2023/10/07 03:41:59;;;;;;;9.25;4.07;;;14.90;99.90;;;;;;5032987;28;20040;-50
2023/10/07 03:44:25;;;;;;;12.38;4.75;;;14.90;99.90;;;;;;5034256;28;20069;-50
2023/10/07 03:46:55;;;;;;;12.13;5.80;;;14.90;99.90;;;;;;5033498;28;20490;-54
2023/10/07 03:49:21;;;;;;;8.55;3.97;;;14.90;99.90;;;;;;5033465;28;20033;-53
2023/10/07 03:51:48;;;;;;;12.32;4.50;;;14.80;99.90;;;;;;5032039;28;20128;-49
2023/10/07 03:54:24;;;;;;;14.32;4.53;;;14.80;99.90;;;;;;5033855;28;20043;-48
2023/10/07 03:56:51;;;;;;;10.73;4.18;;;14.80;99.90;;;;;;5033866;28;20390;-49
2023/10/07 03:59:18;;;;;;;13.80;5.00;;;14.70;99.90;;;;;;5034012;28;20038;-52
2023/10/07 04:01:44;;;;;;;9.70;4.45;;;14.70;99.90;;;;;;5035548;28;20044;-50
2023/10/07 04:04:11;;;;;;;10.00;4.43;;;14.80;99.90;;;;;;5037301;28;20041;-54
2023/10/07 04:06:38;;;;;;;11.50;4.20;;;14.80;99.90;;;;;;5037479;28;20033;-50
2023/10/07 04:09:07;;;;;;;15.70;5.35;;;14.70;99.90;;;;;;5038264;28;20437;-48
2023/10/07 04:11:38;;;;;;;14.98;5.20;;;14.80;99.90;;;;;;5037315;28;20025;-49
2023/10/07 04:14:07;;;;;;;10.93;4.93;;;14.80;99.90;;;;;;5037231;28;20041;-52
2023/10/07 04:16:33;;;;;;;;;;;14.80;99.90;;;;;;5038213;28;20470;-53
2023/10/07 04:21:50;;;;;;;13.00;5.10;;;14.90;99.90;;;;;;5036743;28;20036;-48
2023/10/07 04:24:18;;;;;;;12.73;4.88;;;14.90;99.90;;;;;;5036832;28;20040;-52
2023/10/07 04:26:54;;;;;;;15.38;5.20;;;14.80;99.90;;;;;;5036689;28;20080;-51
2023/10/07 04:29:21;;;;;;;12.38;5.28;;;14.80;99.90;;;;;;5036938;28;20029;-54
2023/10/07 04:31:53;;;;;;;14.15;5.05;;;14.90;99.90;;;;;;5037374;28;20483;-48
2023/10/07 04:34:23;;;;;;;13.82;5.32;;;15.00;99.90;;;;;;5035515;28;20026;-53
2023/10/07 04:42:21;;;;;;;14.02;5.40;;;15.00;99.90;;;;;;5036578;28;20033;-51
2023/10/07 04:50:05;;;;;;;12.15;4.53;;;14.90;99.90;;;;;;5036340;28;20033;-54
2023/10/07 04:52:40;;;;;;;15.95;5.65;;;14.90;99.90;;;;;;5036294;28;20029;-52
2023/10/07 04:55:19;;;;;;;10.90;5.18;;;14.90;99.90;;;;;;5036391;28;20471;-50
2023/10/07 05:03:01;;;;;;;9.80;5.43;;;14.90;99.90;;;;;;5036438;28;20561;-52
2023/10/07 05:05:29;;;;;;;12.93;4.80;;;15.00;99.90;;;;;;5036511;28;20525;-51
2023/10/07 05:07:58;;;;;;;18.08;8.20;;;15.00;99.90;;;;;;5037034;28;20383;-50
2023/10/07 05:10:28;;;;;;;15.60;7.80;;;15.00;99.90;;;;;;5036318;28;20045;-52
2023/10/07 05:12:55;;;;;;;20.25;10.15;;;15.00;99.90;;;;;;5034761;28;20104;-52
2023/10/07 05:15:25;;;;;;;12.85;6.03;;;15.00;99.90;;;;;;5036629;28;20501;-51
2023/10/07 05:17:52;;;;;;;14.77;5.60;;;15.10;99.90;;;;;;5036179;28;20026;-54
2023/10/07 05:20:27;;;;;;;13.68;4.95;;;15.00;99.90;;;;;;5036003;28;20489;-49
2023/10/07 05:22:54;;;;;;;9.82;4.90;;;15.10;99.90;;;;;;5035076;28;20206;-50
2023/10/07 05:25:21;;;;;;;10.95;5.18;;;15.10;99.90;;;;;;5036466;28;20379;-50
2023/10/07 05:27:47;;;;;;;10.80;5.22;;;15.10;99.90;;;;;;5035111;28;20029;-49
2023/10/07 05:30:15;;;;;;;11.32;4.60;;;15.20;99.90;;;;;;5035905;28;20033;-51
2023/10/07 05:32:42;;;;;;;13.57;4.57;;;15.20;99.90;;;;;;5035772;28;20107;-50
2023/10/07 05:35:08;;;;;;;10.18;4.53;;;15.20;99.90;;;;;;5035858;28;20033;-49
2023/10/07 05:37:34;;;;;;;9.80;4.38;;;15.20;99.90;;;;;;5036117;28;20056;-53
2023/10/07 05:40:02;;;;;;;10.73;4.40;;;15.20;99.90;;;;;;5035732;28;20033;-52
2023/10/07 05:42:28;;;;;;;9.57;4.07;;;15.10;99.90;;;;;;5035149;28;20042;-53
2023/10/07 05:44:53;;;;;;;12.15;4.72;;;15.10;99.90;;;;;;5034976;28;20033;-53
2023/10/07 05:47:19;;;;;;;10.75;4.53;;;15.10;99.90;;;;;;5035484;28;20037;-50
2023/10/07 05:49:45;;;;;;;11.52;3.90;;;15.10;99.90;;;;;;5035970;28;20052;-49
2023/10/07 05:52:11;;;;;;;11.57;4.75;;;15.00;99.90;;;;;;5035203;28;20025;-52
2023/10/07 05:54:37;;;;;;;9.40;4.43;;;15.00;99.90;;;;;;5035617;28;20084;-50
2023/10/07 05:57:05;;;;;;;12.23;5.28;;;15.00;99.90;;;;;;5035424;28;20026;-52
2023/10/07 05:59:33;;;;;;;8.82;4.30;;;14.90;99.90;;;;;;5035785;28;20394;-51
2023/10/07 06:02:05;;;;;;;9.75;4.93;;;15.00;99.90;;;;;;5034217;28;20037;-51
2023/10/07 06:04:31;;;;;;;12.30;5.78;;;15.00;99.90;;;;;;5036232;28;20120;-51
2023/10/07 06:06:57;;;;;;;11.05;4.68;;;15.00;99.90;;;;;;5035748;28;20045;-49
2023/10/07 06:09:23;;;;;;;13.77;5.35;;;15.20;99.90;;;;;;5034882;28;20155;-53
2023/10/07 06:11:49;;;;;;;8.23;4.47;;;15.30;99.90;;;;;;5035284;28;20068;-49
2023/10/07 06:14:18;;;;;;;10.43;5.15;;;15.30;99.90;;;;;;5035666;28;20163;-49
2023/10/07 06:16:44;;;;;;;15.95;5.80;;;15.30;99.90;;;;;;5036064;28;20037;-52
2023/10/07 06:19:13;;;;;;;9.82;4.35;;;15.40;99.90;;;;;;5034974;28;20065;-49
2023/10/07 06:21:51;;;;;;;10.10;4.63;;;15.30;99.90;;;;;;5034980;28;20044;-52
2023/10/07 06:24:21;;;;;;;12.17;4.40;;;15.40;99.90;;;;;;5034398;28;20091;-50
2023/10/07 06:26:53;;;;;;;8.98;4.05;;;15.40;99.90;;;;;;5034654;28;20475;-49
2023/10/07 06:29:19;;;;;;;12.85;4.60;;;15.40;99.90;;;;;;5034647;28;20029;-50
2023/10/07 06:31:55;;;;;;;7.22;3.60;;;15.40;99.90;;;;;;5036833;28;20109;-54
2023/10/07 06:34:32;;;;;;;9.07;4.05;;;15.40;99.90;;;;;;5034853;28;20030;-54
2023/10/07 06:36:59;;;;;;;7.68;4.00;;;15.50;99.90;;;;;;5033637;28;20057;-54
2023/10/07 06:39:27;;;;;;;10.02;4.68;;;15.50;99.90;;;;;;5034501;28;20556;-54
2023/10/07 06:41:55;;;;;;;13.52;4.50;;;15.50;99.90;;;;;;5034228;28;20029;-54
2023/10/07 06:44:27;;;;;;;11.25;4.40;;;15.50;99.90;;;;;;5033220;28;20128;-55
2023/10/07 06:46:55;;;;;;;10.98;4.03;;;15.50;99.90;;;;;;5035400;28;20057;-53
2023/10/07 06:49:22;;;;;;;9.80;4.82;;;15.50;99.90;;;;;;5035358;28;20026;-55
2023/10/07 06:51:52;;;;;;;12.70;4.32;;;15.50;99.90;;;;;;5034734;28;20553;-55
2023/10/07 06:54:18;;;;;;;9.70;3.72;;;15.50;99.90;;;;;;5034596;28;20033;-55
2023/10/07 06:56:45;;;;;;;10.95;3.97;;;15.50;99.90;;;;;;5033985;28;20040;-54
2023/10/07 06:59:13;;;;;;;6.38;3.30;;;15.40;99.90;;;;;;5035346;28;20442;-54
2023/10/07 07:04:19;;;;;;;11.18;4.03;;;15.50;99.90;;;;;;5035343;28;20464;-54
2023/10/07 07:06:46;;;;;;;8.27;3.45;;;15.60;99.90;;;;;;5035008;28;20089;-54
2023/10/07 07:12:03;;;;;;;9.02;3.95;;;15.70;99.90;;;;;;5034631;28;20033;-55
2023/10/07 07:14:33;;;;;;;8.48;3.75;;;15.70;99.90;;;;;;5034586;28;20061;-54
2023/10/07 07:17:29;;;;;;;13.15;3.60;;;15.70;99.90;;;;;;5035480;28;20103;-55
2023/10/07 07:22:33;;;;;;;9.48;3.40;;;15.70;99.90;;;;;;5033590;28;20039;-53
2023/10/07 07:25:04;;;;;;;9.40;3.60;;;15.70;99.90;;;;;;5033268;28;20061;-51
2023/10/07 07:27:34;;;;;;;9.57;3.75;;;15.80;99.90;;;;;;5033761;28;20044;-49
2023/10/07 07:30:04;;;;;;;9.50;3.75;;;15.80;99.90;;;;;;5033662;28;20033;-50
2023/10/07 07:32:33;;;;;;;10.07;3.75;;;15.90;99.90;;;;;;5032785;28;20026;-53
2023/10/07 07:35:03;;;;;;;9.32;3.97;;;15.90;99.90;;;;;;5033931;28;20026;-55
2023/10/07 07:37:31;;;;;;;7.78;4.15;;;16.00;99.90;;;;;;5037108;28;20104;-52
2023/10/07 07:40:09;;;;;;;8.00;3.78;;;16.00;99.90;;;;;;5036657;28;20026;-51
2023/10/07 07:42:35;;;;;;;8.80;3.83;;;16.10;99.90;;;;;;5037527;28;20037;-49
2023/10/07 07:45:01;;;;;;;11.57;4.50;;;16.10;99.90;;;;;;5037865;28;20531;-53
2023/10/07 07:47:31;;;;;;;11.80;3.45;;;16.20;99.90;;;;;;5038160;28;20040;-52
2023/10/07 07:50:07;;;;;;;8.02;3.70;;;16.10;99.90;;;;;;5037615;28;20041;-50
2023/10/07 07:52:33;;;;;;;7.80;3.83;;;16.10;99.90;;;;;;5037645;28;20075;-50
2023/10/07 07:54:58;;;;;;;9.38;3.55;;;16.20;99.90;;;;;;5037178;28;20033;-51
2023/10/07 07:57:24;;;;;;;11.52;3.88;;;16.20;99.90;;;;;;5037647;28;20033;-50
2023/10/07 07:59:50;;;;;;;7.90;3.53;;;16.20;99.90;;;;;;5037269;28;20040;-54
2023/10/07 08:02:17;;;;;;;10.15;3.80;;;16.30;99.90;;;;;;5036929;28;20108;-52
2023/10/07 08:04:48;;;;;;;8.40;3.60;;;16.40;99.90;;;;;;5037344;28;20542;-51
2023/10/07 08:09:52;;;;;;;10.65;3.45;;;16.50;99.90;;;;;;5036767;28;20022;-51
2023/10/07 08:12:19;;;;;;;6.82;3.60;;;16.50;99.90;;;;;;5037067;28;20524;-49
2023/10/07 08:14:52;;;;;;;7.38;3.03;;;16.50;99.90;;;;;;5037142;28;20120;-49
2023/10/07 08:17:25;;;;;;;9.27;3.70;;;16.60;99.90;;;;;;5037711;28;20068;-50
2023/10/07 08:19:52;;;;;;;10.93;4.30;;;16.50;99.90;;;;;;5036860;28;20399;-53
2023/10/07 08:22:20;;;;;;;9.35;3.33;;;16.50;99.90;;;;;;5037098;28;20064;-51
2023/10/07 08:24:49;;;;;;;11.27;3.40;;;16.50;99.90;;;;;;5060776;22;20026;-53
2023/10/07 08:30:06;;;;;;;8.48;3.25;;;16.50;99.90;;;;;;5013523;28;20030;-51
2023/10/07 08:32:38;;;;;;;6.72;2.65;;;16.40;99.90;;;;;;5013537;28;20487;-51
2023/10/07 08:35:18;;;;;;;23.77;10.63;;;16.40;99.90;;;;;;5013703;28;20418;-54
2023/10/07 08:37:47;;;;;;;16.75;6.88;;;16.50;99.90;;;;;;5013492;28;20065;-51
2023/10/07 08:40:26;;;;;;;20.48;9.30;;;16.50;99.90;;;;;;5013354;28;20499;-52
2023/10/07 08:42:58;;;;;;;11.88;6.68;;;16.60;99.90;;;;;;4995723;28;20030;-53
2023/10/07 08:45:28;;;;;;;6.75;2.90;;;16.60;99.90;;;;;;5013449;28;20026;-54
2023/10/07 08:48:08;;;;;;;7.07;2.88;;;16.70;99.90;;;;;;5012380;28;20060;-50
2023/10/07 08:50:43;;;;;;;8.07;3.17;;;16.80;99.90;;;;;;5013392;28;20249;-52
2023/10/07 08:53:11;;;;;;;5.45;2.47;;;16.90;99.90;;;;;;5013286;28;20030;-51
2023/10/07 08:55:39;;;;;;;7.35;3.13;;;16.90;99.90;;;;;;5013417;28;20133;-52
2023/10/07 08:58:07;;;;;;;7.00;3.33;;;16.90;99.90;;;;;;5013210;28;20294;-52
2023/10/07 09:00:38;;;;;;;6.97;3.05;;;17.00;99.90;;;;;;4995392;28;20454;-50
2023/10/07 09:03:14;;;;;;;6.57;2.53;;;17.00;99.90;;;;;;5012944;28;20038;-54
2023/10/07 09:05:44;;;;;;;5.95;2.75;;;17.20;99.90;;;;;;5012964;28;20033;-52
2023/10/07 09:08:11;;;;;;;10.30;2.75;;;17.40;99.90;;;;;;5012876;28;20069;-52
2023/10/07 09:10:41;;;;;;;6.28;2.75;;;17.80;99.90;;;;;;5012852;28;20079;-50
2023/10/07 09:13:12;;;;;;;7.05;3.05;;;18.00;99.90;;;;;;5012833;28;20049;-53
2023/10/07 09:15:42;;;;;;;8.18;2.85;;;18.30;99.90;;;;;;5012944;28;20038;-54
2023/10/07 09:18:10;;;;;;;5.63;2.53;;;18.50;99.90;;;;;;5012805;28;20053;-52
2023/10/07 09:20:46;;;;;;;6.25;3.00;;;18.50;99.90;;;;;;5012763;28;20043;-53
2023/10/07 09:23:20;;;;;;;7.05;2.58;;;18.60;99.90;;;;;;5012647;28;20041;-54
2023/10/07 09:25:51;;;;;;;8.57;3.30;;;18.70;99.90;;;;;;5012840;28;20391;-54
2023/10/07 09:28:21;;;;;;;7.63;3.38;;;18.80;99.90;;;;;;5012631;28;20116;-50
2023/10/07 09:30:48;;;;;;;9.25;3.38;;;19.00;99.90;;;;;;5012585;28;20113;-52
2023/10/07 09:33:18;;;;;;;6.97;3.03;;;19.30;99.90;;;;;;5012489;28;20030;-52
2023/10/07 09:36:00;;;;;;;10.95;3.30;;;19.70;99.90;;;;;;5012602;28;20037;-52
2023/10/07 09:38:35;;;;;;;11.63;3.95;;;20.30;99.90;;;;;;5012641;28;20410;-53
2023/10/07 09:43:33;;;;;;;7.90;3.20;;;22.10;99.90;;;;;;5012216;28;20065;-55
2023/10/07 09:45:58;;;;;;;8.10;3.17;;;22.80;99.90;;;;;;5012296;28;20034;-53
2023/10/07 09:48:31;;;;;;;8.52;2.60;;;23.50;99.90;;;;;;5012075;28;20080;-51
2023/10/07 09:51:02;;;;;;;6.55;2.83;;;23.70;99.90;;;;;;5012526;28;20025;-53
2023/10/07 09:53:51;;;;;;;6.00;2.53;;;24.00;99.90;;;;;;5012096;28;20049;-53
2023/10/07 09:56:43;;;;;;;8.75;3.03;;;24.60;99.90;;;;;;4984200;28;20372;-52
2023/10/07 09:59:35;;;;;;;6.20;2.78;;;25.20;99.90;;;;;;5012042;28;20585;-54
2023/10/07 10:02:31;;;;;;;6.20;2.85;;;24.80;99.90;;;;;;5012020;28;20026;-52
2023/10/07 10:05:26;;;;;;;6.43;2.47;;;24.80;99.90;;;;;;5012004;28;20061;-52
2023/10/07 10:08:29;;;;;;;6.90;2.65;;;24.50;99.90;;;;;;5012201;28;20534;-57
2023/10/07 10:10:58;;;;;;;16.95;8.68;;;24.30;99.90;;;;;;5012046;28;20038;-54
2023/10/07 10:16:18;;;;;;;11.15;4.20;;;24.30;99.90;;;;;;5011946;28;20025;-54
2023/10/07 10:18:51;;;;;;;8.73;3.40;;;23.70;99.90;;;;;;5011634;28;20108;-53
2023/10/07 10:21:22;;;;;;;11.88;4.68;;;22.90;99.90;;;;;;5011891;28;20041;-52
2023/10/07 10:23:51;;;;;;;9.18;3.33;;;22.60;99.90;;;;;;5011519;28;20100;-53
2023/10/07 10:26:27;;;;;;;;;;;22.40;99.90;;;;;;5012098;28;20034;-52
2023/10/07 10:28:59;;;;;;;6.65;2.80;;;22.20;99.90;;;;;;5011583;28;19909;-55
2023/10/07 10:31:32;;;;;;;6.88;2.67;;;22.10;99.90;;;;;;5011671;28;20080;-52
2023/10/07 10:33:59;;;;;;;9.93;4.13;;;22.10;99.90;;;;;;4994034;28;20034;-54
2023/10/07 10:36:24;;;;;;;12.38;3.90;;;22.10;99.90;;;;;;5011671;28;20044;-51
2023/10/07 10:38:50;;;;;;;11.20;3.67;;;22.10;99.90;;;;;;5011512;28;20555;-55
2023/10/07 10:41:29;;;;;;;12.57;4.60;;;22.10;99.90;;;;;;4994070;28;20082;-55
2023/10/07 10:44:10;;;;;;;7.43;3.33;;;22.00;99.90;;;;;;5011738;28;20033;-52
2023/10/07 10:46:52;;;;;;;4.78;2.58;;;22.10;99.90;;;;;;5011914;28;20092;-55
2023/10/07 10:49:21;;;;;;;7.82;2.70;;;22.10;99.90;;;;;;5011288;28;20038;-54
2023/10/07 10:51:50;;;;;;;7.82;3.00;;;21.90;99.90;;;;;;5011210;28;20108;-52
2023/10/07 10:54:20;;;;;;;8.05;3.10;;;21.80;99.90;;;;;;5011401;28;20498;-55
2023/10/07 10:56:50;;;;;;;7.93;2.92;;;21.70;99.90;;;;;;5011200;28;20042;-52
2023/10/07 10:59:18;;;;;;;6.13;2.65;;;21.60;99.90;;;;;;5010856;28;20030;-55
2023/10/07 11:01:44;;;;;;;9.20;2.97;;;21.50;99.90;;;;;;5011214;28;20505;-55
2023/10/07 11:04:13;;;;;;;6.00;2.33;;;21.60;99.90;;;;;;5011137;28;20444;-56
2023/10/07 11:06:39;;;;;;;;;;;21.60;99.90;;;;;;5011690;28;20053;-54
2023/10/07 11:09:05;;;;;;;6.25;2.45;;;21.60;99.90;;;;;;5010808;28;20287;-53
2023/10/07 11:11:35;;;;;;;5.68;1.92;;;21.80;99.90;;;;;;5010341;28;20045;-53
2023/10/07 11:14:07;;;;;;;5.43;2.22;;;22.00;99.90;;;;;;5011030;28;20504;-52
2023/10/07 11:16:43;;;;;;;4.32;1.80;;;22.20;99.90;;;;;;5011061;28;20117;-55
2023/10/07 11:19:12;;;;;;;3.35;1.40;;;22.40;99.90;;;;;;5010748;28;20029;-54
2023/10/07 11:21:41;;;;;;;5.93;1.83;;;22.40;99.90;;;;;;4993173;28;20050;-56
2023/10/07 11:24:07;;;;;;;7.40;2.13;;;22.20;99.90;;;;;;5010982;28;20505;-55
2023/10/07 11:26:33;;;;;;;4.78;1.88;;;22.00;99.90;;;;;;5010724;28;20022;-53
2023/10/07 11:29:11;;;;;;;5.22;2.75;;;21.80;99.90;;;;;;5010703;28;20064;-50
2023/10/07 11:31:38;;;;;;;3.53;1.77;;;21.80;99.90;;;;;;5010617;28;20057;-53
2023/10/07 11:34:05;;;;;;;4.18;1.90;;;21.60;99.90;;;;;;5010771;28;20060;-51
2023/10/07 11:36:43;;;;;;;5.03;1.95;;;21.70;99.90;;;;;;5010732;28;20030;-53
2023/10/07 11:39:09;;;;;;;5.28;2.13;;;22.20;99.90;;;;;;5010511;28;20053;-52
2023/10/07 11:41:36;;;;;;;7.45;2.60;;;22.50;99.90;;;;;;5010536;28;20470;-53
2023/10/07 11:44:03;;;;;;;7.03;3.08;;;22.90;99.90;;;;;;5010723;28;20125;-51
2023/10/07 11:46:29;;;;;;;6.50;1.83;;;23.10;99.90;;;;;;5010593;28;20030;-51
2023/10/07 11:48:56;;;;;;;6.30;2.97;;;23.50;99.90;;;;;;5010361;28;20048;-50
2023/10/07 11:51:24;;;;;;;6.28;2.83;;;23.80;99.90;;;;;;5010477;28;20029;-53
2023/10/07 11:53:50;;;;;;;6.05;1.95;;;23.60;99.90;;;;;;5010315;28;20038;-54
2023/10/07 11:56:16;;;;;;;6.63;2.70;;;23.30;99.90;;;;;;5010535;28;20041;-52
2023/10/07 11:58:42;;;;;;;4.90;2.10;;;22.90;99.90;;;;;;5010231;28;20146;-50
2023/10/07 12:01:08;;;;;;;3.25;1.75;;;22.80;99.90;;;;;;5010530;28;20037;-55
2023/10/07 12:03:34;;;;;;;5.95;2.03;;;22.80;99.90;;;;;;5010421;28;20033;-51
2023/10/07 12:06:00;;;;;;;4.50;1.80;;;22.90;99.90;;;;;;5010412;28;20510;-51
2023/10/07 12:08:26;;;;;;;10.15;2.25;;;23.10;99.90;;;;;;5010621;28;20099;-54
2023/10/07 12:10:52;;;;;;;5.07;2.30;;;23.30;99.90;;;;;;5010310;28;20033;-54
2023/10/07 12:13:19;;;;;;;5.60;2.20;;;23.40;99.90;;;;;;5010179;28;20034;-52
2023/10/07 12:15:45;;;;;;;4.43;2.00;;;23.60;99.90;;;;;;5010324;28;20034;-54
2023/10/07 12:18:16;;;;;;;5.32;1.98;;;23.50;99.90;;;;;;5010286;28;20030;-53
2023/10/07 12:20:42;;;;;;;7.07;2.20;;;23.40;99.90;;;;;;5010189;28;20501;-52
2023/10/07 12:23:08;;;;;;;5.13;1.95;;;23.30;99.90;;;;;;5011013;28;20037;-54
2023/10/07 12:25:35;;;;;;;7.18;2.90;;;23.20;99.90;;;;;;5013750;28;20474;-52
2023/10/07 12:28:05;;;;;;;4.72;1.70;;;23.20;99.90;;;;;;5013784;28;20560;-52
2023/10/07 12:30:31;;;;;;;5.97;2.58;;;23.20;99.90;;;;;;5013867;28;20057;-50
2023/10/07 12:32:57;;;;;;;4.70;2.28;;;23.30;99.90;;;;;;5013566;28;20085;-51
2023/10/07 12:35:24;;;;;;;5.68;1.63;;;23.30;99.90;;;;;;5013818;28;20029;-54
2023/10/07 12:37:52;;;;;;;5.20;2.35;;;23.30;99.90;;;;;;5013629;28;20033;-51
2023/10/07 12:40:18;;;;;;;7.18;1.88;;;23.30;99.90;;;;;;5013490;28;20069;-55
2023/10/07 12:42:51;;;;;;;9.73;4.10;;;23.20;99.90;;;;;;5013442;28;20073;-54
2023/10/07 12:45:17;;;;;;;5.72;3.15;;;23.20;99.90;;;;;;5013511;28;20037;-52
2023/10/07 12:47:43;;;;;;;5.70;2.60;;;23.30;99.90;;;;;;5013444;28;20030;-53
2023/10/07 12:52:58;;;;;;;5.95;3.05;;;23.50;99.90;;;;;;5014230;28;20384;-53
2023/10/07 12:55:31;;;;;;;7.45;2.78;;;23.70;99.90;;;;;;5013682;28;20030;-55
2023/10/07 12:58:05;;;;;;;3.92;1.55;;;23.70;99.90;;;;;;5013644;28;20038;-56
2023/10/07 13:00:33;;;;;;;5.32;2.20;;;23.70;99.90;;;;;;5013730;28;20034;-54
2023/10/07 13:03:04;;;;;;;8.52;3.22;;;23.70;99.90;;;;;;5013512;28;20069;-55
2023/10/07 13:05:32;;;;;;;6.65;2.33;;;23.70;99.90;;;;;;5013313;28;20045;-52
2023/10/07 13:07:59;;;;;;;6.57;2.83;;;23.80;99.90;;;;;;5013063;28;20034;-55
2023/10/07 13:10:26;;;;;;;7.07;2.47;;;23.70;99.90;;;;;;5013004;28;20104;-56
2023/10/07 13:12:55;;;;;;;5.97;2.20;;;23.60;99.90;;;;;;5013064;28;20021;-55
2023/10/07 13:15:30;;;;;;;5.50;2.42;;;23.60;99.90;;;;;;4995573;28;20037;-55
2023/10/07 13:17:58;;;;;;;8.68;3.63;;;23.80;99.90;;;;;;5012944;28;20104;-55
2023/10/07 13:20:26;;;;;;;6.20;2.08;;;24.20;99.90;;;;;;5012998;28;20088;-56
2023/10/07 13:22:53;;;;;;;5.70;2.30;;;24.60;99.90;;;;;;5012717;28;20088;-55
2023/10/07 13:25:19;;;;;;;6.78;2.22;;;25.00;99.90;;;;;;5013044;28;20767;-55
2023/10/07 13:27:49;;;;;;;8.70;3.80;;;25.70;98.80;;;;;;5012873;28;20288;-51
2023/10/07 13:30:16;;;;;;;5.75;2.47;;;25.80;98.90;;;;;;5012893;28;20030;-56
2023/10/07 13:32:46;;;;;;;10.25;4.75;;;25.60;99.10;;;;;;4995094;28;20034;-53
2023/10/07 13:35:15;;;;;;;4.90;2.55;;;25.10;99.10;;;;;;5012461;28;20037;-56
2023/10/07 13:37:43;;;;;;;6.35;3.47;;;24.70;99.90;;;;;;5012770;28;20025;-53
2023/10/07 13:40:15;;;;;;;6.18;2.08;;;24.30;99.90;;;;;;5012725;28;20049;-56
2023/10/07 13:42:43;;;;;;;8.57;2.30;;;23.90;99.90;;;;;;5012847;28;20030;-53
2023/10/07 13:45:09;;;;;;;5.35;2.00;;;23.70;99.90;;;;;;5013112;28;20092;-56
2023/10/07 13:47:35;;;;;;;6.15;2.42;;;23.60;99.90;;;;;;5012552;28;20095;-52
2023/10/07 13:50:10;;;;;;;9.65;4.18;;;23.40;99.90;;;;;;5012186;28;20475;-54
2023/10/07 13:52:45;;;;;;;6.28;3.13;;;23.40;99.90;;;;;;5012349;28;20438;-54
2023/10/07 13:55:22;;;;;;;8.20;2.85;;;23.20;99.90;;;;;;5012355;28;20044;-54
2023/10/07 13:57:54;;;;;;;10.07;4.07;;;23.10;99.90;;;;;;5012177;28;20536;-55
2023/10/07 14:03:16;;;;;;;5.85;2.63;;;22.90;99.90;;;;;;5012106;28;20034;-55
2023/10/07 14:05:48;;;;;;;9.57;2.70;;;22.90;99.90;;;;;;5012151;28;20030;-50
2023/10/07 14:08:17;;;;;;;6.80;2.35;;;23.00;99.90;;;;;;5012025;28;20033;-51